Time;durP1;ratioP1;P1;durP2;ratioP2;P2;SDS_P1;SDS_P2;PMS_P1;PMS_P2;Temp;Humidity;BMP_temperature;BMP_pressure;BME280_temperature;BME280_humidity;BME280_pressure;Samples;Min_cycle;Max_cycle;Signal;HPM_P1;HPM_P2
2023/12/03 00:05:02;;;;;;;24.3;14.2;;;;;;;-2.03;88.82;;;;;
2023/12/03 00:15:02;;;;;;;24.3;14.2;;;;;;;-2.1;88.73;;;;;
2023/12/03 00:25:02;;;;;;;24.3;14.2;;;;;;;-2.06;88.7;;;;;
2023/12/03 00:36:02;;;;;;;32.2;16.9;;;;;;;-2.09;88.66;;;;;
2023/12/03 00:47:02;;;;;;;32.2;16.9;;;;;;;-2.08;88.24;;;;;
2023/12/03 00:58:02;;;;;;;32.2;16.9;;;;;;;-2;88.2;;;;;
2023/12/03 01:08:02;;;;;;;31.9;17.8;;;;;;;-2.06;87.99;;;;;
2023/12/03 01:18:02;;;;;;;31.9;17.8;;;;;;;-2.03;87.92;;;;;
2023/12/03 01:29:03;;;;;;;31.9;17.8;;;;;;;-2.13;88.14;;;;;
2023/12/03 01:40:02;;;;;;;43.3;24.4;;;;;;;-2.07;87.91;;;;;
2023/12/03 01:50:02;;;;;;;43.3;24.4;;;;;;;-2.06;87.72;;;;;
2023/12/03 02:01:02;;;;;;;43.3;24.4;;;;;;;-2.04;87.32;;;;;
2023/12/03 02:12:02;;;;;;;48.6;23.5;;;;;;;-2.1;87.08;;;;;
2023/12/03 02:23:02;;;;;;;48.6;23.5;;;;;;;-2.18;86.68;;;;;
2023/12/03 02:33:02;;;;;;;48.6;23.5;;;;;;;-2.19;86.27;;;;;
2023/12/03 02:43:02;;;;;;;40.4;21.9;;;;;;;-2.23;86.05;;;;;
2023/12/03 02:54:02;;;;;;;40.4;21.9;;;;;;;-2.34;85.94;;;;;
2023/12/03 03:05:02;;;;;;;22.4;12.5;;;;;;;-2.56;86.05;;;;;
2023/12/03 03:15:02;;;;;;;22.4;12.5;;;;;;;-2.71;85.95;;;;;
2023/12/03 03:26:03;;;;;;;22.4;12.5;;;;;;;-2.77;86.49;;;;;
2023/12/03 03:37:02;;;;;;;19.4;11;;;;;;;-2.78;86.14;;;;;
2023/12/03 03:48:03;;;;;;;19.4;11;;;;;;;-2.9;86.08;;;;;
2023/12/03 03:59:03;;;;;;;19.4;11;;;;;;;-2.84;85.98;;;;;
2023/12/03 04:10:04;;;;;;;16;9.4;;;;;;;-2.86;85.48;;;;;
2023/12/03 04:21:02;;;;;;;16;9.4;;;;;;;-2.94;85.47;;;;;
2023/12/03 04:32:02;;;;;;;16;9.4;;;;;;;-3.04;85.66;;;;;
2023/12/03 04:42:02;;;;;;;12.9;8.6;;;;;;;-3.01;85.48;;;;;
2023/12/03 04:53:02;;;;;;;12.9;8.6;;;;;;;-3.32;86.24;;;;;
2023/12/03 05:03:02;;;;;;;12.7;7.7;;;;;;;-3.3;85.96;;;;;
2023/12/03 05:14:02;;;;;;;12.7;7.7;;;;;;;-3.19;85.82;;;;;
2023/12/03 05:25:02;;;;;;;12.7;7.7;;;;;;;-3.25;85.25;;;;;
2023/12/03 05:35:02;;;;;;;10.4;6.6;;;;;;;-3.08;85.03;;;;;
2023/12/03 05:46:03;;;;;;;10.4;6.6;;;;;;;-3.21;84.84;;;;;
2023/12/03 05:57:02;;;;;;;10.4;6.6;;;;;;;-3.02;84.73;;;;;
2023/12/03 06:07:02;;;;;;;11.3;6;;;;;;;-3.03;84.57;;;;;
2023/12/03 06:17:02;;;;;;;11.3;6;;;;;;;-3.01;84.76;;;;;
2023/12/03 06:28:02;;;;;;;11.3;6;;;;;;;-3.04;85.41;;;;;
2023/12/03 06:38:02;;;;;;;11.4;6.1;;;;;;;-2.96;85.79;;;;;
2023/12/03 06:48:02;;;;;;;11.4;6.1;;;;;;;-2.85;87.37;;;;;
2023/12/03 06:58:03;;;;;;;11.4;6.1;;;;;;;-2.76;86.88;;;;;
2023/12/03 07:09:02;;;;;;;8.7;5.1;;;;;;;-2.58;86.21;;;;;
2023/12/03 07:19:02;;;;;;;8.7;5.1;;;;;;;-2.34;85.7;;;;;
2023/12/03 07:30:02;;;;;;;8.7;5.1;;;;;;;-2.24;85.3;;;;;
2023/12/03 07:41:02;;;;;;;8.6;4.9;;;;;;;-2.02;85.06;;;;;
2023/12/03 07:51:02;;;;;;;8.6;4.9;;;;;;;-2.01;85.05;;;;;
2023/12/03 08:01:03;;;;;;;8.6;4.9;;;;;;;-2.05;85.98;;;;;
2023/12/03 08:11:02;;;;;;;9.4;5.2;;;;;;;-1.89;86.24;;;;;
2023/12/03 08:22:03;;;;;;;9.4;5.2;;;;;;;-1.63;85.08;;;;;
2023/12/03 08:32:02;;;;;;;10.9;5.7;;;;;;;-1.29;84.23;;;;;
2023/12/03 08:42:04;;;;;;;10.9;5.7;;;;;;;-1.25;83.7;;;;;
2023/12/03 08:53:03;;;;;;;10.9;5.7;;;;;;;-0.85;85.09;;;;;
2023/12/03 09:03:03;;;;;;;11.9;5.6;;;;;;;-0.85;82.38;;;;;
2023/12/03 09:13:03;;;;;;;11.9;5.6;;;;;;;-0.76;83.41;;;;;
2023/12/03 09:23:03;;;;;;;11.9;5.6;;;;;;;-0.78;81.75;;;;;
2023/12/03 09:34:02;;;;;;;10.6;5.9;;;;;;;-0.85;81.57;;;;;
2023/12/03 09:44:02;;;;;;;10.6;5.9;;;;;;;-0.75;81.6;;;;;
2023/12/03 09:54:03;;;;;;;10.6;5.9;;;;;;;-0.73;81.53;;;;;
2023/12/03 10:04:03;;;;;;;11.8;6.1;;;;;;;-0.84;80.97;;;;;
2023/12/03 10:15:03;;;;;;;11.8;6.1;;;;;;;-0.25;80.31;;;;;
2023/12/03 10:26:03;;;;;;;11.8;6.1;;;;;;;-0.21;79.63;;;;;
2023/12/03 10:36:03;;;;;;;15.3;9;;;;;;;0.28;78.06;;;;;
2023/12/03 10:47:03;;;;;;;15.3;9;;;;;;;0.14;79.33;;;;;
2023/12/03 10:57:03;;;;;;;15.3;9;;;;;;;0.4;77.6;;;;;
2023/12/03 11:08:03;;;;;;;14.4;7.7;;;;;;;-0.18;80.57;;;;;
2023/12/03 11:19:03;;;;;;;14.4;7.7;;;;;;;-0.38;81.01;;;;;
2023/12/03 11:30:04;;;;;;;14.4;7.7;;;;;;;-0.59;81.52;;;;;
2023/12/03 11:40:03;;;;;;;16.4;8.3;;;;;;;-0.67;81.43;;;;;
2023/12/03 11:50:03;;;;;;;16.4;8.3;;;;;;;-0.57;81.41;;;;;
2023/12/03 12:00:06;;;;;;;16.4;8.3;;;;;;;-0.93;82.84;;;;;
2023/12/03 12:10:03;;;;;;;15.8;9.3;;;;;;;-0.87;82.2;;;;;
2023/12/03 12:21:03;;;;;;;15.8;9.3;;;;;;;-0.64;81.08;;;;;
2023/12/03 12:32:03;;;;;;;14.5;8.7;;;;;;;-0.7;81.46;;;;;
2023/12/03 12:43:03;;;;;;;14.5;8.7;;;;;;;-1.04;81.43;;;;;
2023/12/03 12:54:03;;;;;;;14.5;8.7;;;;;;;-1.29;82.69;;;;;
2023/12/03 13:04:03;;;;;;;13.8;7;;;;;;;-1.44;83.34;;;;;
2023/12/03 13:14:03;;;;;;;13.8;7;;;;;;;-1.58;83.45;;;;;
2023/12/03 13:25:03;;;;;;;13.8;7;;;;;;;-1.71;83.53;;;;;
2023/12/03 13:35:03;;;;;;;16.7;8.8;;;;;;;-1.66;83.65;;;;;
2023/12/03 13:46:03;;;;;;;16.7;8.8;;;;;;;-1.7;83.17;;;;;
2023/12/03 13:57:03;;;;;;;16.7;8.8;;;;;;;-1.8;82.72;;;;;
2023/12/03 14:08:03;;;;;;;15.3;8.5;;;;;;;-1.89;83.07;;;;;
2023/12/03 14:18:03;;;;;;;15.3;8.5;;;;;;;-1.82;83.68;;;;;
2023/12/03 14:29:03;;;;;;;15.3;8.5;;;;;;;-1.9;84.5;;;;;
2023/12/03 14:39:03;;;;;;;18;11;;;;;;;-1.91;84.42;;;;;
2023/12/03 14:49:03;;;;;;;18;11;;;;;;;-2.11;84.1;;;;;
2023/12/03 15:00:05;;;;;;;18;11;;;;;;;-2.25;84.48;;;;;
2023/12/03 15:10:03;;;;;;;14.7;8.7;;;;;;;-2.17;84.31;;;;;
2023/12/03 15:21:03;;;;;;;14.7;8.7;;;;;;;-2.23;83.82;;;;;
2023/12/03 15:31:03;;;;;;;15.1;9.4;;;;;;;-2.33;83.39;;;;;
2023/12/03 15:41:03;;;;;;;15.1;9.4;;;;;;;-2.23;83.21;;;;;
2023/12/03 15:52:03;;;;;;;15.1;9.4;;;;;;;-2.31;82.47;;;;;
2023/12/03 16:02:04;;;;;;;14.6;8.1;;;;;;;-2.36;82.23;;;;;
2023/12/03 16:12:03;;;;;;;14.6;8.1;;;;;;;-2.28;82.37;;;;;
2023/12/03 16:22:03;;;;;;;14.6;8.1;;;;;;;-2.27;82.24;;;;;
2023/12/03 16:33:03;;;;;;;18.5;9.3;;;;;;;-2.46;81.21;;;;;
2023/12/03 16:44:03;;;;;;;18.5;9.3;;;;;;;-2.5;81.55;;;;;
2023/12/03 16:54:03;;;;;;;18.5;9.3;;;;;;;-2.45;81.57;;;;;
2023/12/03 17:05:03;;;;;;;16;9.7;;;;;;;-2.46;81.34;;;;;
2023/12/03 17:15:03;;;;;;;16;9.7;;;;;;;-2.42;80.86;;;;;
2023/12/03 17:26:04;;;;;;;16;9.7;;;;;;;-2.24;81.13;;;;;
2023/12/03 17:36:03;;;;;;;19.2;10.7;;;;;;;-2.17;80.82;;;;;
2023/12/03 17:47:03;;;;;;;19.2;10.7;;;;;;;-2.11;80.35;;;;;
2023/12/03 17:58:03;;;;;;;19.2;10.7;;;;;;;-2.14;79.34;;;;;
2023/12/03 18:09:03;;;;;;;17.6;10.8;;;;;;;-2.33;79.43;;;;;
2023/12/03 18:19:03;;;;;;;17.6;10.8;;;;;;;-2.3;78.57;;;;;
2023/12/03 18:29:03;;;;;;;17.6;10.8;;;;;;;-2.25;79.13;;;;;
2023/12/03 18:40:03;;;;;;;22;12.6;;;;;;;-2.22;78.61;;;;;
2023/12/03 18:51:03;;;;;;;22;12.6;;;;;;;-2.2;78.3;;;;;
2023/12/03 19:01:03;;;;;;;17.1;10.7;;;;;;;-2.4;75.84;;;;;
2023/12/03 19:11:03;;;;;;;17.1;10.7;;;;;;;-2.3;75.61;;;;;
2023/12/03 19:22:03;;;;;;;17.1;10.7;;;;;;;-2.49;77.59;;;;;
2023/12/03 19:32:03;;;;;;;15.1;8.1;;;;;;;-2.83;77.6;;;;;
2023/12/03 19:42:04;;;;;;;15.1;8.1;;;;;;;-3.06;77.76;;;;;
2023/12/03 19:52:04;;;;;;;15.1;8.1;;;;;;;-3.55;78.14;;;;;
2023/12/03 20:03:03;;;;;;;21.7;12.7;;;;;;;-4.21;78.58;;;;;
2023/12/03 20:14:03;;;;;;;21.7;12.7;;;;;;;-4.64;78.85;;;;;
2023/12/03 20:24:03;;;;;;;21.7;12.7;;;;;;;-4.81;80.92;;;;;
2023/12/03 20:34:03;;;;;;;19.1;11.2;;;;;;;-5.02;80.79;;;;;
2023/12/03 20:45:03;;;;;;;19.1;11.2;;;;;;;-5.16;82.53;;;;;
2023/12/03 20:55:03;;;;;;;19.1;11.2;;;;;;;-5.11;82.15;;;;;
2023/12/03 21:06:03;;;;;;;22.2;12.5;;;;;;;-5.04;82.15;;;;;
2023/12/03 21:16:03;;;;;;;22.2;12.5;;;;;;;-5.1;82.01;;;;;
2023/12/03 21:26:04;;;;;;;22.2;12.5;;;;;;;-4.82;81.51;;;;;
2023/12/03 21:37:03;;;;;;;14.8;7;;;;;;;-4.53;80.64;;;;;
2023/12/03 21:47:03;;;;;;;14.8;7;;;;;;;-4.42;80.17;;;;;
2023/12/03 21:58:03;;;;;;;14.8;7;;;;;;;-4.36;79.96;;;;;
2023/12/03 22:08:03;;;;;;;11.7;7.4;;;;;;;-4.26;79.39;;;;;
2023/12/03 22:18:03;;;;;;;11.7;7.4;;;;;;;-4.04;78.6;;;;;
2023/12/03 22:29:03;;;;;;;11.7;7.4;;;;;;;-3.88;78.45;;;;;
2023/12/03 22:39:05;;;;;;;13.1;6.5;;;;;;;-3.93;78.59;;;;;
2023/12/03 22:49:03;;;;;;;13.1;6.5;;;;;;;-3.91;78.18;;;;;
2023/12/03 22:59:03;;;;;;;13.1;6.5;;;;;;;-3.71;78.24;;;;;
2023/12/03 23:09:03;;;;;;;12.8;7;;;;;;;-3.58;78.01;;;;;
2023/12/03 23:20:03;;;;;;;12.8;7;;;;;;;-3.57;78.12;;;;;
2023/12/03 23:31:05;;;;;;;13.2;7;;;;;;;-3.45;77.91;;;;;
2023/12/03 23:42:03;;;;;;;13.2;7;;;;;;;-3.41;78.16;;;;;
2023/12/03 23:52:03;;;;;;;13.2;7;;;;;;;-3.4;78.6;;;;;
